sensor_id;sensor_type;location;lat;lon;timestamp;temperature;humidity
52451;DHT22;38366;53.176;6.540;2023-04-01T00:00:55;9.70;99.90
52451;DHT22;38366;53.176;6.540;2023-04-01T00:03:22;9.70;99.90
52451;DHT22;38366;53.176;6.540;2023-04-01T00:05:48;9.70;99.90
52451;DHT22;38366;53.176;6.540;2023-04-01T00:08:14;9.70;99.90
52451;DHT22;38366;53.176;6.540;2023-04-01T00:10:40;9.70;99.90
52451;DHT22;38366;53.176;6.540;2023-04-01T00:13:06;9.70;99.90
52451;DHT22;38366;53.176;6.540;2023-04-01T00:15:33;9.70;99.90
52451;DHT22;38366;53.176;6.540;2023-04-01T00:17:58;9.70;99.90
52451;DHT22;38366;53.176;6.540;2023-04-01T00:20:25;9.70;99.90
52451;DHT22;38366;53.176;6.540;2023-04-01T00:22:51;9.70;99.90
52451;DHT22;38366;53.176;6.540;2023-04-01T00:25:17;9.80;99.90
52451;DHT22;38366;53.176;6.540;2023-04-01T00:27:42;9.70;99.90
52451;DHT22;38366;53.176;6.540;2023-04-01T00:30:09;9.70;99.90
52451;DHT22;38366;53.176;6.540;2023-04-01T00:32:35;9.70;99.90
52451;DHT22;38366;53.176;6.540;2023-04-01T00:35:01;9.70;99.90
52451;DHT22;38366;53.176;6.540;2023-04-01T00:37:27;9.80;99.90
52451;DHT22;38366;53.176;6.540;2023-04-01T00:39:53;9.80;99.90
52451;DHT22;38366;53.176;6.540;2023-04-01T00:42:19;9.80;99.90
52451;DHT22;38366;53.176;6.540;2023-04-01T00:44:50;9.80;99.90
52451;DHT22;38366;53.176;6.540;2023-04-01T00:47:17;9.80;99.90
52451;DHT22;38366;53.176;6.540;2023-04-01T00:49:46;9.80;99.90
52451;DHT22;38366;53.176;6.540;2023-04-01T00:52:16;9.80;99.90
52451;DHT22;38366;53.176;6.540;2023-04-01T00:54:46;9.80;99.90
52451;DHT22;38366;53.176;6.540;2023-04-01T00:57:17;9.80;99.90
52451;DHT22;38366;53.176;6.540;2023-04-01T00:59:48;9.70;99.90
52451;DHT22;38366;53.176;6.540;2023-04-01T01:02:17;9.70;99.90
52451;DHT22;38366;53.176;6.540;2023-04-01T01:04:44;9.70;99.90
52451;DHT22;38366;53.176;6.540;2023-04-01T01:13:03;9.70;99.90
52451;DHT22;38366;53.176;6.540;2023-04-01T01:16:00;9.70;99.90
52451;DHT22;38366;53.176;6.540;2023-04-01T01:18:38;9.60;99.90
52451;DHT22;38366;53.176;6.540;2023-04-01T01:27:11;9.60;99.90
52451;DHT22;38366;53.176;6.540;2023-04-01T01:30:38;9.60;99.90
52451;DHT22;38366;53.176;6.540;2023-04-01T01:33:01;9.60;99.90
52451;DHT22;38366;53.176;6.540;2023-04-01T01:35:36;9.60;99.90
52451;DHT22;38366;53.176;6.540;2023-04-01T01:38:16;9.60;99.90
52451;DHT22;38366;53.176;6.540;2023-04-01T01:40:46;9.70;99.90
52451;DHT22;38366;53.176;6.540;2023-04-01T01:43:16;9.60;99.90
52451;DHT22;38366;53.176;6.540;2023-04-01T01:45:47;9.60;99.90
52451;DHT22;38366;53.176;6.540;2023-04-01T01:48:14;9.60;99.90
52451;DHT22;38366;53.176;6.540;2023-04-01T01:50:43;9.60;99.90
52451;DHT22;38366;53.176;6.540;2023-04-01T01:53:12;9.60;99.90
52451;DHT22;38366;53.176;6.540;2023-04-01T01:55:41;9.60;99.90
52451;DHT22;38366;53.176;6.540;2023-04-01T01:58:21;9.70;99.90
52451;DHT22;38366;53.176;6.540;2023-04-01T02:00:57;9.60;99.90
52451;DHT22;38366;53.176;6.540;2023-04-01T02:03:24;9.60;99.90
52451;DHT22;38366;53.176;6.540;2023-04-01T02:05:52;9.60;99.90
52451;DHT22;38366;53.176;6.540;2023-04-01T02:08:25;9.60;99.90
52451;DHT22;38366;53.176;6.540;2023-04-01T02:11:06;9.60;99.90
52451;DHT22;38366;53.176;6.540;2023-04-01T02:13:45;9.60;99.90
52451;DHT22;38366;53.176;6.540;2023-04-01T02:16:18;9.70;99.90
52451;DHT22;38366;53.176;6.540;2023-04-01T02:18:48;9.60;99.90
52451;DHT22;38366;53.176;6.540;2023-04-01T02:21:15;9.60;99.90
52451;DHT22;38366;53.176;6.540;2023-04-01T02:23:42;9.60;99.90
52451;DHT22;38366;53.176;6.540;2023-04-01T02:26:09;9.60;99.90
52451;DHT22;38366;53.176;6.540;2023-04-01T02:28:38;9.60;99.90
52451;DHT22;38366;53.176;6.540;2023-04-01T02:31:04;9.60;99.90
52451;DHT22;38366;53.176;6.540;2023-04-01T02:33:31;9.60;99.90
52451;DHT22;38366;53.176;6.540;2023-04-01T02:35:57;9.60;99.90
52451;DHT22;38366;53.176;6.540;2023-04-01T02:38:23;9.60;99.90
52451;DHT22;38366;53.176;6.540;2023-04-01T02:40:52;9.60;99.90
52451;DHT22;38366;53.176;6.540;2023-04-01T02:43:21;9.60;99.90
52451;DHT22;38366;53.176;6.540;2023-04-01T02:45:47;9.60;99.90
52451;DHT22;38366;53.176;6.540;2023-04-01T02:48:13;9.60;99.90
52451;DHT22;38366;53.176;6.540;2023-04-01T02:50:39;9.60;99.90
52451;DHT22;38366;53.176;6.540;2023-04-01T02:53:05;9.60;99.90
52451;DHT22;38366;53.176;6.540;2023-04-01T02:55:32;9.60;99.90
52451;DHT22;38366;53.176;6.540;2023-04-01T02:57:58;9.60;99.90
52451;DHT22;38366;53.176;6.540;2023-04-01T03:00:25;9.60;99.90
52451;DHT22;38366;53.176;6.540;2023-04-01T03:02:51;9.60;99.90
52451;DHT22;38366;53.176;6.540;2023-04-01T03:05:16;9.60;99.90
52451;DHT22;38366;53.176;6.540;2023-04-01T03:07:42;9.60;99.90
52451;DHT22;38366;53.176;6.540;2023-04-01T03:10:08;9.60;99.90
52451;DHT22;38366;53.176;6.540;2023-04-01T03:12:34;9.60;99.90
52451;DHT22;38366;53.176;6.540;2023-04-01T03:15:00;9.50;99.90
52451;DHT22;38366;53.176;6.540;2023-04-01T03:17:25;9.60;99.90
52451;DHT22;38366;53.176;6.540;2023-04-01T03:19:51;9.50;99.90
52451;DHT22;38366;53.176;6.540;2023-04-01T03:22:17;9.60;99.90
52451;DHT22;38366;53.176;6.540;2023-04-01T03:24:46;9.60;99.90
52451;DHT22;38366;53.176;6.540;2023-04-01T03:27:12;9.50;99.90
52451;DHT22;38366;53.176;6.540;2023-04-01T03:29:38;9.50;99.90
52451;DHT22;38366;53.176;6.540;2023-04-01T03:32:04;9.50;99.90
52451;DHT22;38366;53.176;6.540;2023-04-01T03:34:30;9.50;99.90
52451;DHT22;38366;53.176;6.540;2023-04-01T03:36:56;9.50;99.90
52451;DHT22;38366;53.176;6.540;2023-04-01T03:39:22;9.50;99.90
52451;DHT22;38366;53.176;6.540;2023-04-01T03:41:47;9.50;99.90
52451;DHT22;38366;53.176;6.540;2023-04-01T03:44:13;9.50;99.90
52451;DHT22;38366;53.176;6.540;2023-04-01T03:46:39;9.50;99.90
52451;DHT22;38366;53.176;6.540;2023-04-01T03:49:09;9.50;99.90
52451;DHT22;38366;53.176;6.540;2023-04-01T03:51:41;9.50;99.90
52451;DHT22;38366;53.176;6.540;2023-04-01T03:54:07;9.50;99.90
52451;DHT22;38366;53.176;6.540;2023-04-01T03:56:33;9.50;99.90
52451;DHT22;38366;53.176;6.540;2023-04-01T03:59:03;9.50;99.90
52451;DHT22;38366;53.176;6.540;2023-04-01T04:01:29;9.50;99.90
52451;DHT22;38366;53.176;6.540;2023-04-01T04:03:55;9.50;99.90
52451;DHT22;38366;53.176;6.540;2023-04-01T04:06:21;9.50;99.90
52451;DHT22;38366;53.176;6.540;2023-04-01T04:08:47;9.50;99.90
52451;DHT22;38366;53.176;6.540;2023-04-01T04:11:13;9.50;99.90
52451;DHT22;38366;53.176;6.540;2023-04-01T04:13:39;9.50;99.90
52451;DHT22;38366;53.176;6.540;2023-04-01T04:16:05;9.50;99.90
52451;DHT22;38366;53.176;6.540;2023-04-01T04:18:31;9.50;99.90
52451;DHT22;38366;53.176;6.540;2023-04-01T04:20:57;9.50;99.90
52451;DHT22;38366;53.176;6.540;2023-04-01T04:23:22;9.40;99.90
52451;DHT22;38366;53.176;6.540;2023-04-01T04:26:00;9.50;99.90
52451;DHT22;38366;53.176;6.540;2023-04-01T04:28:27;9.50;99.90
52451;DHT22;38366;53.176;6.540;2023-04-01T04:30:53;9.50;99.90
52451;DHT22;38366;53.176;6.540;2023-04-01T04:33:19;9.50;99.90
52451;DHT22;38366;53.176;6.540;2023-04-01T04:35:45;9.50;99.90
52451;DHT22;38366;53.176;6.540;2023-04-01T04:38:11;9.50;99.90
52451;DHT22;38366;53.176;6.540;2023-04-01T04:40:38;9.50;99.90
52451;DHT22;38366;53.176;6.540;2023-04-01T04:43:04;9.50;99.90
52451;DHT22;38366;53.176;6.540;2023-04-01T04:45:30;9.50;99.90
52451;DHT22;38366;53.176;6.540;2023-04-01T04:47:56;9.50;99.90
52451;DHT22;38366;53.176;6.540;2023-04-01T04:50:23;9.50;99.90
52451;DHT22;38366;53.176;6.540;2023-04-01T04:52:49;9.50;99.90
52451;DHT22;38366;53.176;6.540;2023-04-01T04:55:14;9.50;99.90
52451;DHT22;38366;53.176;6.540;2023-04-01T04:57:43;9.50;99.90
52451;DHT22;38366;53.176;6.540;2023-04-01T05:00:09;9.50;99.90
52451;DHT22;38366;53.176;6.540;2023-04-01T05:02:38;9.50;99.90
52451;DHT22;38366;53.176;6.540;2023-04-01T05:05:04;9.50;99.90
52451;DHT22;38366;53.176;6.540;2023-04-01T05:07:30;9.50;99.90
52451;DHT22;38366;53.176;6.540;2023-04-01T05:09:56;9.50;99.90
52451;DHT22;38366;53.176;6.540;2023-04-01T05:12:21;9.50;99.90
52451;DHT22;38366;53.176;6.540;2023-04-01T05:14:47;9.50;99.90
52451;DHT22;38366;53.176;6.540;2023-04-01T05:17:13;9.50;99.90
52451;DHT22;38366;53.176;6.540;2023-04-01T05:19:39;9.50;99.90
52451;DHT22;38366;53.176;6.540;2023-04-01T05:22:06;9.50;99.90
52451;DHT22;38366;53.176;6.540;2023-04-01T05:24:32;9.50;99.90
52451;DHT22;38366;53.176;6.540;2023-04-01T05:26:58;9.50;99.90
52451;DHT22;38366;53.176;6.540;2023-04-01T05:29:25;9.50;99.90
52451;DHT22;38366;53.176;6.540;2023-04-01T05:31:50;9.50;99.90
52451;DHT22;38366;53.176;6.540;2023-04-01T05:34:16;9.50;99.90
52451;DHT22;38366;53.176;6.540;2023-04-01T05:36:43;9.50;99.90
52451;DHT22;38366;53.176;6.540;2023-04-01T05:39:09;9.50;99.90
52451;DHT22;38366;53.176;6.540;2023-04-01T05:41:38;9.50;99.90
52451;DHT22;38366;53.176;6.540;2023-04-01T05:44:04;9.50;99.90
52451;DHT22;38366;53.176;6.540;2023-04-01T05:46:30;9.50;99.90
52451;DHT22;38366;53.176;6.540;2023-04-01T05:48:56;9.50;99.90
52451;DHT22;38366;53.176;6.540;2023-04-01T05:51:23;9.50;99.90
52451;DHT22;38366;53.176;6.540;2023-04-01T05:53:48;9.50;99.90
52451;DHT22;38366;53.176;6.540;2023-04-01T05:56:14;9.50;99.90
52451;DHT22;38366;53.176;6.540;2023-04-01T05:58:40;9.50;99.90
52451;DHT22;38366;53.176;6.540;2023-04-01T06:01:09;9.50;99.90
52451;DHT22;38366;53.176;6.540;2023-04-01T06:03:35;9.50;99.90
52451;DHT22;38366;53.176;6.540;2023-04-01T06:06:01;9.50;99.90
52451;DHT22;38366;53.176;6.540;2023-04-01T06:08:27;9.50;99.90
52451;DHT22;38366;53.176;6.540;2023-04-01T06:13:46;9.50;99.90
52451;DHT22;38366;53.176;6.540;2023-04-01T06:36:21;9.70;99.90
52451;DHT22;38366;53.176;6.540;2023-04-01T06:45:00;9.80;99.90
52451;DHT22;38366;53.176;6.540;2023-04-01T06:53:05;9.80;99.90
52451;DHT22;38366;53.176;6.540;2023-04-01T06:55:46;9.80;99.90
52451;DHT22;38366;53.176;6.540;2023-04-01T06:58:46;9.80;99.90
52451;DHT22;38366;53.176;6.540;2023-04-01T07:04:00;9.80;99.90
52451;DHT22;38366;53.176;6.540;2023-04-01T07:06:38;9.80;99.90
52451;DHT22;38366;53.176;6.540;2023-04-01T07:09:16;9.80;99.90
52451;DHT22;38366;53.176;6.540;2023-04-01T07:11:43;9.80;99.90
52451;DHT22;38366;53.176;6.540;2023-04-01T07:14:30;9.80;99.90
52451;DHT22;38366;53.176;6.540;2023-04-01T07:17:17;9.90;99.90
52451;DHT22;38366;53.176;6.540;2023-04-01T07:22:50;9.80;99.90
52451;DHT22;38366;53.176;6.540;2023-04-01T07:25:26;9.80;99.90
52451;DHT22;38366;53.176;6.540;2023-04-01T07:27:56;9.80;99.90
52451;DHT22;38366;53.176;6.540;2023-04-01T07:30:26;9.80;99.90
52451;DHT22;38366;53.176;6.540;2023-04-01T07:33:01;9.90;99.90
52451;DHT22;38366;53.176;6.540;2023-04-01T07:35:52;9.80;99.90
52451;DHT22;38366;53.176;6.540;2023-04-01T07:38:24;9.90;99.90
52451;DHT22;38366;53.176;6.540;2023-04-01T07:46:59;9.90;99.90
52451;DHT22;38366;53.176;6.540;2023-04-01T07:50:08;10.00;99.90
52451;DHT22;38366;53.176;6.540;2023-04-01T07:52:37;10.00;99.90
52451;DHT22;38366;53.176;6.540;2023-04-01T07:55:07;10.00;99.90
52451;DHT22;38366;53.176;6.540;2023-04-01T07:58:08;10.00;99.90
52451;DHT22;38366;53.176;6.540;2023-04-01T08:00:43;10.00;99.90
52451;DHT22;38366;53.176;6.540;2023-04-01T08:17:02;10.20;99.90
52451;DHT22;38366;53.176;6.540;2023-04-01T08:24:55;10.40;99.90
52451;DHT22;38366;53.176;6.540;2023-04-01T08:27:44;10.40;99.90
52451;DHT22;38366;53.176;6.540;2023-04-01T08:32:59;10.50;99.90
52451;DHT22;38366;53.176;6.540;2023-04-01T08:37:55;10.50;99.90
52451;DHT22;38366;53.176;6.540;2023-04-01T08:43:40;10.50;99.90
52451;DHT22;38366;53.176;6.540;2023-04-01T08:57:32;10.70;99.90
52451;DHT22;38366;53.176;6.540;2023-04-01T09:03:15;10.90;99.90
52451;DHT22;38366;53.176;6.540;2023-04-01T09:05:56;11.10;99.90
52451;DHT22;38366;53.176;6.540;2023-04-01T09:17:28;11.20;99.90
52451;DHT22;38366;53.176;6.540;2023-04-01T09:20:19;10.90;99.90
52451;DHT22;38366;53.176;6.540;2023-04-01T09:23:16;10.60;99.90
52451;DHT22;38366;53.176;6.540;2023-04-01T09:31:38;10.30;99.90
52451;DHT22;38366;53.176;6.540;2023-04-01T09:34:25;10.10;99.90
52451;DHT22;38366;53.176;6.540;2023-04-01T09:37:14;10.10;99.90
52451;DHT22;38366;53.176;6.540;2023-04-01T09:45:01;10.00;99.90
52451;DHT22;38366;53.176;6.540;2023-04-01T10:10:32;9.90;99.90
52451;DHT22;38366;53.176;6.540;2023-04-01T10:16:30;9.80;99.90
52451;DHT22;38366;53.176;6.540;2023-04-01T10:25:01;9.80;99.90
52451;DHT22;38366;53.176;6.540;2023-04-01T10:33:32;9.80;99.90
52451;DHT22;38366;53.176;6.540;2023-04-01T10:44:41;9.80;99.90
52451;DHT22;38366;53.176;6.540;2023-04-01T11:04:52;10.00;99.90
52451;DHT22;38366;53.176;6.540;2023-04-01T11:26:32;9.80;99.90
52451;DHT22;38366;53.176;6.540;2023-04-01T11:29:15;9.70;99.90
52451;DHT22;38366;53.176;6.540;2023-04-01T11:34:34;9.70;99.90
52451;DHT22;38366;53.176;6.540;2023-04-01T11:37:19;9.80;99.90
52451;DHT22;38366;53.176;6.540;2023-04-01T11:45:36;9.70;99.90
52451;DHT22;38366;53.176;6.540;2023-04-01T11:55:50;10.00;99.90
52451;DHT22;38366;53.176;6.540;2023-04-01T11:58:48;10.00;99.90
52451;DHT22;38366;53.176;6.540;2023-04-01T12:10:21;10.20;99.90
52451;DHT22;38366;53.176;6.540;2023-04-01T12:13:20;10.20;99.90
52451;DHT22;38366;53.176;6.540;2023-04-01T12:21:15;10.10;99.90
52451;DHT22;38366;53.176;6.540;2023-04-01T12:24:02;10.00;99.90
52451;DHT22;38366;53.176;6.540;2023-04-01T12:26:41;10.00;99.90
52451;DHT22;38366;53.176;6.540;2023-04-01T12:48:20;10.10;99.90
52451;DHT22;38366;53.176;6.540;2023-04-01T12:59:21;9.80;99.90
52451;DHT22;38366;53.176;6.540;2023-04-01T13:02:17;9.80;99.90
52451;DHT22;38366;53.176;6.540;2023-04-01T13:04:56;9.90;99.90
52451;DHT22;38366;53.176;6.540;2023-04-01T13:07:34;9.80;99.90
52451;DHT22;38366;53.176;6.540;2023-04-01T13:15:58;9.90;99.90
52451;DHT22;38366;53.176;6.540;2023-04-01T13:24:24;9.90;99.90
52451;DHT22;38366;53.176;6.540;2023-04-01T13:33:12;9.80;99.90
52451;DHT22;38366;53.176;6.540;2023-04-01T13:36:03;9.90;99.90
52451;DHT22;38366;53.176;6.540;2023-04-01T13:38:43;9.90;99.90
52451;DHT22;38366;53.176;6.540;2023-04-01T13:41:29;10.00;99.90
52451;DHT22;38366;53.176;6.540;2023-04-01T13:44:02;10.00;99.90
52451;DHT22;38366;53.176;6.540;2023-04-01T13:55:20;9.80;99.90
52451;DHT22;38366;53.176;6.540;2023-04-01T13:58:20;9.90;99.90
52451;DHT22;38366;53.176;6.540;2023-04-01T14:01:10;9.90;99.90
52451;DHT22;38366;53.176;6.540;2023-04-01T14:03:54;9.90;99.90
52451;DHT22;38366;53.176;6.540;2023-04-01T14:12:01;9.70;99.90
52451;DHT22;38366;53.176;6.540;2023-04-01T14:17:08;9.50;99.90
52451;DHT22;38366;53.176;6.540;2023-04-01T14:20:02;9.40;99.90
52451;DHT22;38366;53.176;6.540;2023-04-01T14:23:13;9.40;99.90
52451;DHT22;38366;53.176;6.540;2023-04-01T14:26:00;9.40;99.90
52451;DHT22;38366;53.176;6.540;2023-04-01T14:50:25;9.00;99.90
52451;DHT22;38366;53.176;6.540;2023-04-01T14:53:11;8.90;99.90
52451;DHT22;38366;53.176;6.540;2023-04-01T14:58:17;8.90;99.90
52451;DHT22;38366;53.176;6.540;2023-04-01T15:09:23;8.80;99.90
52451;DHT22;38366;53.176;6.540;2023-04-01T15:14:57;8.80;99.90
52451;DHT22;38366;53.176;6.540;2023-04-01T15:17:53;8.80;99.90
52451;DHT22;38366;53.176;6.540;2023-04-01T15:29:01;8.70;99.90
52451;DHT22;38366;53.176;6.540;2023-04-01T15:34:15;8.60;99.90
52451;DHT22;38366;53.176;6.540;2023-04-01T15:36:52;8.50;99.90
52451;DHT22;38366;53.176;6.540;2023-04-01T15:39:20;8.40;99.90
52451;DHT22;38366;53.176;6.540;2023-04-01T15:53:35;8.30;99.90
52451;DHT22;38366;53.176;6.540;2023-04-01T16:03:39;8.10;99.90
52451;DHT22;38366;53.176;6.540;2023-04-01T16:09:21;8.10;99.90
52451;DHT22;38366;53.176;6.540;2023-04-01T16:14:38;8.00;99.90
52451;DHT22;38366;53.176;6.540;2023-04-01T16:17:30;8.00;99.90
52451;DHT22;38366;53.176;6.540;2023-04-01T16:22:35;8.00;99.90
52451;DHT22;38366;53.176;6.540;2023-04-01T16:25:20;8.00;99.90
52451;DHT22;38366;53.176;6.540;2023-04-01T16:34:18;7.80;99.90
52451;DHT22;38366;53.176;6.540;2023-04-01T16:36:22;7.80;99.90
52451;DHT22;38366;53.176;6.540;2023-04-01T16:39:05;7.70;99.90
52451;DHT22;38366;53.176;6.540;2023-04-01T16:41:36;7.80;99.90
52451;DHT22;38366;53.176;6.540;2023-04-01T16:44:27;7.70;99.90
52451;DHT22;38366;53.176;6.540;2023-04-01T16:46:58;7.70;99.90
52451;DHT22;38366;53.176;6.540;2023-04-01T16:49:52;7.70;99.90
52451;DHT22;38366;53.176;6.540;2023-04-01T16:55:20;7.70;99.90
52451;DHT22;38366;53.176;6.540;2023-04-01T16:57:51;7.60;99.90
52451;DHT22;38366;53.176;6.540;2023-04-01T17:00:28;7.60;99.90
52451;DHT22;38366;53.176;6.540;2023-04-01T17:09:06;7.50;99.90
52451;DHT22;38366;53.176;6.540;2023-04-01T17:11:49;7.50;99.90
52451;DHT22;38366;53.176;6.540;2023-04-01T17:17:04;7.40;99.90
52451;DHT22;38366;53.176;6.540;2023-04-01T17:30:02;7.30;99.90
52451;DHT22;38366;53.176;6.540;2023-04-01T17:50:14;7.20;99.90
52451;DHT22;38366;53.176;6.540;2023-04-01T17:52:55;7.20;99.90
52451;DHT22;38366;53.176;6.540;2023-04-01T17:56:05;7.20;99.90
52451;DHT22;38366;53.176;6.540;2023-04-01T17:58:35;7.20;99.90
52451;DHT22;38366;53.176;6.540;2023-04-01T18:01:21;7.10;99.90
52451;DHT22;38366;53.176;6.540;2023-04-01T18:04:15;7.10;99.90
52451;DHT22;38366;53.176;6.540;2023-04-01T18:06:59;7.10;99.90
52451;DHT22;38366;53.176;6.540;2023-04-01T18:12:25;7.10;99.90
52451;DHT22;38366;53.176;6.540;2023-04-01T18:20:59;6.90;99.90
52451;DHT22;38366;53.176;6.540;2023-04-01T18:26:23;6.90;99.90
52451;DHT22;38366;53.176;6.540;2023-04-01T18:31:46;6.80;99.90
52451;DHT22;38366;53.176;6.540;2023-04-01T18:39:50;6.80;99.90
52451;DHT22;38366;53.176;6.540;2023-04-01T18:45:41;6.70;99.90
52451;DHT22;38366;53.176;6.540;2023-04-01T18:54:05;6.60;99.90
52451;DHT22;38366;53.176;6.540;2023-04-01T18:56:43;6.60;99.90
52451;DHT22;38366;53.176;6.540;2023-04-01T18:59:16;6.50;99.90
52451;DHT22;38366;53.176;6.540;2023-04-01T19:04:43;6.50;99.90
52451;DHT22;38366;53.176;6.540;2023-04-01T19:14:01;6.40;99.90
52451;DHT22;38366;53.176;6.540;2023-04-01T19:16:21;6.40;99.90
52451;DHT22;38366;53.176;6.540;2023-04-01T19:29:35;6.30;99.90
52451;DHT22;38366;53.176;6.540;2023-04-01T19:32:42;6.20;99.90
52451;DHT22;38366;53.176;6.540;2023-04-01T19:38:04;6.20;99.90
52451;DHT22;38366;53.176;6.540;2023-04-01T19:43:21;6.10;99.90
52451;DHT22;38366;53.176;6.540;2023-04-01T19:51:33;6.20;99.90
52451;DHT22;38366;53.176;6.540;2023-04-01T19:54:13;6.20;99.90
52451;DHT22;38366;53.176;6.540;2023-04-01T19:57:16;6.10;99.90
52451;DHT22;38366;53.176;6.540;2023-04-01T20:02:39;6.00;99.90
52451;DHT22;38366;53.176;6.540;2023-04-01T20:08:03;6.00;99.90
52451;DHT22;38366;53.176;6.540;2023-04-01T20:13:36;6.00;99.90
52451;DHT22;38366;53.176;6.540;2023-04-01T20:16:10;6.00;99.90
52451;DHT22;38366;53.176;6.540;2023-04-01T20:19:12;5.90;99.90
52451;DHT22;38366;53.176;6.540;2023-04-01T20:21:42;5.90;99.90
52451;DHT22;38366;53.176;6.540;2023-04-01T20:24:30;5.90;99.90
52451;DHT22;38366;53.176;6.540;2023-04-01T20:27:31;5.90;99.90
52451;DHT22;38366;53.176;6.540;2023-04-01T20:32:58;5.80;99.90
52451;DHT22;38366;53.176;6.540;2023-04-01T20:36:05;5.80;99.90
52451;DHT22;38366;53.176;6.540;2023-04-01T20:44:43;5.90;99.90
52451;DHT22;38366;53.176;6.540;2023-04-01T20:53:04;5.80;99.90
52451;DHT22;38366;53.176;6.540;2023-04-01T20:55:38;5.80;99.90
52451;DHT22;38366;53.176;6.540;2023-04-01T21:12:01;5.70;99.90
52451;DHT22;38366;53.176;6.540;2023-04-01T21:14:44;5.70;99.90
52451;DHT22;38366;53.176;6.540;2023-04-01T21:17:17;5.70;99.90
52451;DHT22;38366;53.176;6.540;2023-04-01T21:25:37;5.70;99.90
52451;DHT22;38366;53.176;6.540;2023-04-01T21:33:36;5.60;99.90
52451;DHT22;38366;53.176;6.540;2023-04-01T22:06:25;5.40;99.90
52451;DHT22;38366;53.176;6.540;2023-04-01T22:09:07;5.50;99.90
52451;DHT22;38366;53.176;6.540;2023-04-01T22:11:44;5.40;99.90
52451;DHT22;38366;53.176;6.540;2023-04-01T22:14:33;5.30;99.90
52451;DHT22;38366;53.176;6.540;2023-04-01T22:17:18;5.30;99.90
52451;DHT22;38366;53.176;6.540;2023-04-01T22:28:29;5.30;99.90
52451;DHT22;38366;53.176;6.540;2023-04-01T22:31:00;5.20;99.90
52451;DHT22;38366;53.176;6.540;2023-04-01T22:33:29;5.20;99.90
52451;DHT22;38366;53.176;6.540;2023-04-01T22:36:29;5.50;99.90
52451;DHT22;38366;53.176;6.540;2023-04-01T22:39:37;5.30;99.90
52451;DHT22;38366;53.176;6.540;2023-04-01T22:42:21;5.20;99.90
52451;DHT22;38366;53.176;6.540;2023-04-01T22:52:00;5.20;99.90
52451;DHT22;38366;53.176;6.540;2023-04-01T22:54:41;5.20;99.90
52451;DHT22;38366;53.176;6.540;2023-04-01T22:57:14;5.20;99.90
52451;DHT22;38366;53.176;6.540;2023-04-01T22:59:57;5.10;99.90
52451;DHT22;38366;53.176;6.540;2023-04-01T23:02:30;5.20;99.90
52451;DHT22;38366;53.176;6.540;2023-04-01T23:04:59;5.00;99.90
52451;DHT22;38366;53.176;6.540;2023-04-01T23:10:39;4.90;99.90
52451;DHT22;38366;53.176;6.540;2023-04-01T23:13:12;4.90;99.90
52451;DHT22;38366;53.176;6.540;2023-04-01T23:15:40;4.80;99.90
52451;DHT22;38366;53.176;6.540;2023-04-01T23:29:06;4.60;99.90
52451;DHT22;38366;53.176;6.540;2023-04-01T23:31:40;4.80;99.90
52451;DHT22;38366;53.176;6.540;2023-04-01T23:36:44;4.90;99.90
52451;DHT22;38366;53.176;6.540;2023-04-01T23:39:30;4.60;99.90
52451;DHT22;38366;53.176;6.540;2023-04-01T23:42:23;4.50;99.90
52451;DHT22;38366;53.176;6.540;2023-04-01T23:44:48;5.60;99.90
52451;DHT22;38366;53.176;6.540;2023-04-01T23:47:22;4.50;99.90
52451;DHT22;38366;53.176;6.540;2023-04-01T23:50:01;4.50;99.90
52451;DHT22;38366;53.176;6.540;2023-04-01T23:52:31;4.40;99.90
52451;DHT22;38366;53.176;6.540;2023-04-01T23:57:38;4.40;99.90
